createdAt,value
2023-02-16T00:01:26.693Z,96477.66
2023-02-16T00:03:57.242Z,96485.97
2023-02-16T00:06:26.215Z,96479.00
2023-02-16T00:08:55.846Z,96479.38
2023-02-16T00:11:45.279Z,96477.66
2023-02-16T00:14:13.771Z,96484.16
2023-02-16T00:16:41.896Z,96475.53
2023-02-16T00:19:22.319Z,96472.41
2023-02-16T00:21:51.639Z,96481.53
2023-02-16T00:24:19.776Z,96477.31
2023-02-16T00:26:48.570Z,96479.97
2023-02-16T00:29:21.635Z,96469.66
2023-02-16T00:31:50.414Z,96469.34
2023-02-16T00:34:31.770Z,96468.56
2023-02-16T00:37:01.239Z,96460.25
2023-02-16T00:39:29.733Z,96452.94
2023-02-16T00:42:00.801Z,96447.81
2023-02-16T00:44:33.039Z,96446.31
2023-02-16T00:47:03.608Z,96440.19
2023-02-16T00:49:32.719Z,96436.72
2023-02-16T00:52:00.412Z,96436.53
2023-02-16T00:54:30.385Z,96439.19
2023-02-16T00:56:58.905Z,96432.22
2023-02-16T00:59:26.636Z,96438.19
2023-02-16T01:01:54.492Z,96431.59
2023-02-16T01:04:24.623Z,96420.50
2023-02-16T01:07:12.209Z,96422.16
2023-02-16T01:09:57.569Z,96422.34
2023-02-16T01:12:25.341Z,96422.16
2023-02-16T01:14:55.303Z,96428.41
2023-02-16T01:17:23.852Z,96428.41
2023-02-16T01:19:51.510Z,96429.41
2023-02-16T01:22:20.612Z,96414.84
2023-02-16T01:24:48.282Z,96433.31
2023-02-16T01:27:15.992Z,96433.19
2023-02-16T01:29:43.715Z,96428.88
2023-02-16T01:32:13.356Z,96424.88
2023-02-16T01:34:41.212Z,96435.84
2023-02-16T01:37:16.183Z,96431.53
2023-02-16T01:39:45.606Z,96432.31
2023-02-16T01:42:26.683Z,96441.50
2023-02-16T01:45:00.219Z,96443.22
2023-02-16T01:47:37.081Z,96443.75
2023-02-16T01:50:17.269Z,96431.66
2023-02-16T01:52:48.989Z,96440.66
2023-02-16T01:55:23.216Z,96447.56
2023-02-16T01:57:53.927Z,96443.53
2023-02-16T02:00:28.420Z,96439.69
2023-02-16T02:03:19.521Z,96435.22
2023-02-16T02:05:47.353Z,96433.75
2023-02-16T02:08:24.657Z,96436.50
2023-02-16T02:11:04.297Z,96440.19
2023-02-16T02:13:40.667Z,96441.47
2023-02-16T02:16:09.708Z,96429.84
2023-02-16T02:18:37.441Z,96424.88
2023-02-16T02:21:49.249Z,96416.75
2023-02-16T02:25:10.471Z,96420.75
2023-02-16T02:27:41.900Z,96418.63
2023-02-16T02:30:24.502Z,96422.13
2023-02-16T02:33:15.057Z,96419.19
2023-02-16T02:35:52.252Z,96424.50
2023-02-16T02:38:28.929Z,96424.75
2023-02-16T02:41:05.127Z,96419.44
2023-02-16T02:43:40.287Z,96418.59
2023-02-16T02:46:15.107Z,96420.59
2023-02-16T02:48:44.901Z,96417.84
2023-02-16T02:51:33.629Z,96416.38
2023-02-16T02:54:21.950Z,96414.72
2023-02-16T02:57:14.436Z,96411.59
2023-02-16T03:00:11.034Z,96412.50
2023-02-16T03:02:41.661Z,96411.69
2023-02-16T03:05:12.817Z,96410.38
2023-02-16T03:07:50.246Z,96410.38
2023-02-16T03:10:38.364Z,96406.72
2023-02-16T03:13:12.622Z,96411.41
2023-02-16T03:15:42.871Z,96401.81
2023-02-16T03:18:31.430Z,96407.84
2023-02-16T03:21:18.684Z,96400.53
2023-02-16T03:24:05.447Z,96403.84
2023-02-16T03:26:52.423Z,96409.00
2023-02-16T03:29:22.540Z,96398.53
2023-02-16T03:31:54.250Z,96408.78
2023-02-16T03:34:23.235Z,96405.94
2023-02-16T03:36:53.797Z,96400.09
2023-02-16T03:39:22.181Z,96409.41
2023-02-16T03:41:52.602Z,96410.59
2023-02-16T03:44:21.215Z,96412.06
2023-02-16T03:46:50.806Z,96414.72
2023-02-16T03:49:19.538Z,96415.72
2023-02-16T03:51:47.592Z,96413.56
2023-02-16T03:54:15.421Z,96418.03
2023-02-16T03:56:45.513Z,96414.63
2023-02-16T03:59:13.188Z,96422.41
2023-02-16T04:01:40.868Z,96426.91
2023-02-16T04:04:10.028Z,96428.06
2023-02-16T04:06:37.858Z,96428.91
2023-02-16T04:09:05.704Z,96428.41
2023-02-16T04:11:53.312Z,96432.81
2023-02-16T04:14:21.092Z,96430.41
2023-02-16T04:16:48.842Z,96434.38
2023-02-16T04:19:20.830Z,96425.59
2023-02-16T04:21:48.540Z,96438.50
2023-02-16T04:24:18.903Z,96434.19
2023-02-16T04:26:46.645Z,96440.34
2023-02-16T04:29:14.345Z,96442.81
2023-02-16T04:31:42.190Z,96438.78
2023-02-16T04:34:10.034Z,96433.81
2023-02-16T04:36:39.057Z,96437.03
2023-02-16T04:39:06.724Z,96441.50
2023-02-16T04:41:37.847Z,96439.69
2023-02-16T04:44:05.935Z,96445.19
2023-02-16T04:46:33.698Z,96435.59
2023-02-16T04:49:01.364Z,96437.41
2023-02-16T04:51:30.060Z,96427.63
2023-02-16T04:53:59.115Z,96434.06
2023-02-16T04:56:28.177Z,96431.94
2023-02-16T04:58:57.160Z,96434.25
2023-02-16T05:01:26.701Z,96432.41
2023-02-16T05:04:00.546Z,96425.44
2023-02-16T05:06:28.293Z,96436.53
2023-02-16T05:08:56.026Z,96438.03
2023-02-16T05:11:42.605Z,96437.19
2023-02-16T05:14:36.478Z,96432.06
2023-02-16T05:17:04.456Z,96425.41
2023-02-16T05:19:32.459Z,96428.91
2023-02-16T05:22:00.284Z,96431.38
2023-02-16T05:24:28.605Z,96437.31
2023-02-16T05:26:57.905Z,96430.72
2023-02-16T05:29:25.840Z,96425.75
2023-02-16T05:31:53.764Z,96423.78
2023-02-16T05:34:21.918Z,96427.44
2023-02-16T05:36:49.611Z,96425.97
2023-02-16T05:39:17.635Z,96429.44
2023-02-16T05:41:45.535Z,96429.00
2023-02-16T05:44:14.730Z,96433.75
2023-02-16T05:46:43.056Z,96438.59
2023-02-16T05:49:10.874Z,96441.03
2023-02-16T05:51:40.813Z,96443.81
2023-02-16T05:54:10.649Z,96456.28
2023-02-16T05:56:38.382Z,96450.97
2023-02-16T05:59:06.038Z,96461.09
2023-02-16T06:01:35.092Z,96459.41
2023-02-16T06:04:02.896Z,96457.44
2023-02-16T06:06:30.619Z,96463.38
2023-02-16T06:08:58.343Z,96467.13
2023-02-16T06:11:37.951Z,96469.28
2023-02-16T06:14:08.086Z,96473.59
2023-02-16T06:16:38.200Z,96467.09
2023-02-16T06:19:06.758Z,96474.91
2023-02-16T06:21:35.695Z,96473.06
2023-02-16T06:24:03.924Z,96477.03
2023-02-16T06:26:31.815Z,96486.56
2023-02-16T06:28:59.833Z,96480.09
2023-02-16T06:31:28.095Z,96486.97
2023-02-16T06:33:57.798Z,96486.94
2023-02-16T06:36:26.078Z,96483.84
2023-02-16T06:38:53.840Z,96481.88
2023-02-16T06:41:32.337Z,96481.81
2023-02-16T06:44:00.968Z,96478.38
2023-02-16T06:46:28.904Z,96477.00
2023-02-16T06:48:58.013Z,96485.22
2023-02-16T06:51:25.857Z,96487.34
2023-02-16T06:53:53.720Z,96484.63
2023-02-16T06:56:24.750Z,96486.72
2023-02-16T06:58:52.492Z,96493.63
2023-02-16T07:01:23.203Z,96490.84
2023-02-16T07:06:30.901Z,96495.09
2023-02-16T07:08:58.668Z,96494.69
2023-02-16T07:11:26.452Z,96495.31
2023-02-16T07:13:54.212Z,96490.91
2023-02-16T07:16:22.353Z,96493.72
2023-02-16T07:18:50.133Z,96495.69
2023-02-16T07:21:18.058Z,96497.66
2023-02-16T07:23:47.356Z,96490.63
2023-02-16T07:26:15.103Z,96499.75
2023-02-16T07:28:43.180Z,96492.88
2023-02-16T07:31:12.650Z,96498.78
2023-02-16T07:33:40.627Z,96506.91
2023-02-16T07:36:09.801Z,96499.81
2023-02-16T07:38:38.428Z,96502.97
2023-02-16T07:41:09.707Z,96503.66
2023-02-16T07:43:38.548Z,96506.03
2023-02-16T07:46:06.694Z,96499.91
2023-02-16T07:48:34.719Z,96505.94
2023-02-16T07:51:03.329Z,96511.97
2023-02-16T07:53:31.239Z,96505.25
2023-02-16T07:55:58.973Z,96511.25
2023-02-16T07:58:28.308Z,96517.88
2023-02-16T08:00:57.393Z,96508.25
2023-02-16T08:03:25.423Z,96512.81
2023-02-16T08:05:53.280Z,96507.06
2023-02-16T08:08:21.185Z,96508.53
2023-02-16T08:10:48.996Z,96507.91
2023-02-16T08:13:16.692Z,96501.69
2023-02-16T08:15:46.068Z,96497.28
2023-02-16T08:18:16.915Z,96494.38
2023-02-16T08:21:03.865Z,96492.50
2023-02-16T08:23:32.382Z,96479.56
2023-02-16T08:26:00.330Z,96489.56
2023-02-16T08:28:29.440Z,96484.53
2023-02-16T08:31:04.130Z,96487.88
2023-02-16T08:33:33.143Z,96491.84
2023-02-16T08:36:00.890Z,96483.44
2023-02-16T08:38:28.625Z,96493.56
2023-02-16T08:40:56.558Z,96490.22
2023-02-16T08:43:24.425Z,96481.56
2023-02-16T08:45:52.799Z,96483.81
2023-02-16T08:48:23.267Z,96479.50
2023-02-16T08:50:54.024Z,96471.50
2023-02-16T08:53:23.225Z,96473.84
2023-02-16T08:55:55.710Z,96470.16
2023-02-16T08:58:24.514Z,96469.41
2023-02-16T09:00:52.748Z,96478.16
2023-02-16T09:03:22.049Z,96466.81
2023-02-16T09:05:51.324Z,96467.78
2023-02-16T09:08:19.214Z,96473.94
2023-02-16T09:10:47.099Z,96472.41
2023-02-16T09:13:16.235Z,96469.72
2023-02-16T09:15:44.862Z,96475.94
2023-02-16T09:18:14.047Z,96475.91
2023-02-16T09:20:46.778Z,96469.34
2023-02-16T09:23:15.024Z,96472.28
2023-02-16T09:25:42.803Z,96467.06
2023-02-16T09:28:11.625Z,96467.38
2023-02-16T09:30:39.949Z,96480.84
2023-02-16T09:33:07.816Z,96472.63
2023-02-16T09:35:35.642Z,96473.72
2023-02-16T09:38:04.786Z,96473.59
2023-02-16T09:40:32.649Z,96462.72
2023-02-16T09:43:09.384Z,96468.66
2023-02-16T09:45:42.527Z,96462.31
2023-02-16T09:48:24.509Z,96470.31
2023-02-16T09:50:55.229Z,96465.28
2023-02-16T09:53:37.216Z,96471.66
2023-02-16T09:56:15.362Z,96462.59
2023-02-16T09:58:47.577Z,96463.53
2023-02-16T10:01:25.791Z,96461.94
2023-02-16T10:04:01.303Z,96460.06
2023-02-16T10:06:40.472Z,96466.59
2023-02-16T10:09:14.070Z,96460.63
2023-02-16T10:11:48.905Z,96462.53
2023-02-16T10:14:30.756Z,96450.66
2023-02-16T10:17:08.863Z,96468.16
2023-02-16T10:19:40.790Z,96459.84
2023-02-16T10:22:14.456Z,96461.88
2023-02-16T10:24:53.141Z,96458.34
2023-02-16T10:27:22.919Z,96453.66
2023-02-16T10:29:50.728Z,96457.81
2023-02-16T10:32:26.887Z,96452.25
2023-02-16T10:35:07.738Z,96458.63
2023-02-16T10:37:45.183Z,96462.75
2023-02-16T10:40:27.967Z,96452.66
2023-02-16T10:43:01.879Z,96449.84
2023-02-16T10:45:37.124Z,96454.81
2023-02-16T10:48:06.021Z,96445.94
2023-02-16T10:50:40.170Z,96454.72
2023-02-16T10:53:13.396Z,96447.59
2023-02-16T10:55:42.630Z,96449.75
2023-02-16T10:58:18.833Z,96449.00
2023-02-16T11:00:53.101Z,96443.38
2023-02-16T11:03:25.326Z,96443.09
2023-02-16T11:05:54.734Z,96435.16
2023-02-16T11:08:24.188Z,96443.25
2023-02-16T11:10:54.875Z,96435.22
2023-02-16T11:13:29.051Z,96436.41
2023-02-16T11:15:59.187Z,96428.53
2023-02-16T11:18:33.916Z,96432.41
2023-02-16T11:21:03.372Z,96419.97
2023-02-16T11:23:33.207Z,96438.84
2023-02-16T11:26:06.236Z,96435.41
2023-02-16T11:28:36.254Z,96427.75
2023-02-16T11:31:25.080Z,96424.38
2023-02-16T11:33:59.955Z,96417.91
2023-02-16T11:36:35.445Z,96405.28
2023-02-16T11:39:07.558Z,96410.72
2023-02-16T11:41:37.378Z,96405.75
2023-02-16T11:44:05.675Z,96401.03
2023-02-16T11:46:41.616Z,96394.56
2023-02-16T11:49:32.761Z,96392.78
2023-02-16T11:52:00.753Z,96389.09
2023-02-16T11:54:28.668Z,96387.56
2023-02-16T11:57:09.267Z,96375.09
2023-02-16T11:59:39.833Z,96368.97
2023-02-16T12:02:37.542Z,96358.44
2023-02-16T12:05:19.584Z,96352.34
2023-02-16T12:07:59.828Z,96362.72
2023-02-16T12:10:35.144Z,96345.56
2023-02-16T12:13:16.477Z,96346.38
2023-02-16T12:15:49.491Z,96340.19
2023-02-16T12:18:27.980Z,96344.00
2023-02-16T12:21:02.465Z,96341.91
2023-02-16T12:23:38.277Z,96351.00
2023-02-16T12:26:31.692Z,96339.91
2023-02-16T12:29:11.155Z,96345.44
2023-02-16T12:31:54.371Z,96342.72
2023-02-16T12:34:34.281Z,96335.69
2023-02-16T12:37:12.531Z,96323.78
2023-02-16T12:39:46.812Z,96333.53
2023-02-16T12:42:31.431Z,96330.41
2023-02-16T12:45:05.508Z,96328.22
2023-02-16T12:47:39.676Z,96329.56
2023-02-16T12:50:19.688Z,96324.44
2023-02-16T12:52:52.816Z,96315.16
2023-02-16T12:55:25.541Z,96317.50
2023-02-16T12:58:02.911Z,96309.41
2023-02-16T13:00:42.881Z,96316.63
2023-02-16T13:03:26.083Z,96311.84
2023-02-16T13:06:02.575Z,96309.81
2023-02-16T13:08:39.600Z,96305.75
2023-02-16T13:11:15.543Z,96292.56
2023-02-16T13:13:46.728Z,96305.41
2023-02-16T13:16:30.182Z,96301.28
2023-02-16T13:18:58.990Z,96295.22
2023-02-16T13:21:54.167Z,96291.97
2023-02-16T13:24:33.835Z,96286.97
2023-02-16T13:27:16.260Z,96290.81
2023-02-16T13:30:04.376Z,96283.22
2023-02-16T13:32:52.341Z,96286.06
2023-02-16T13:35:42.841Z,96277.97
2023-02-16T13:38:44.657Z,96281.22
2023-02-16T13:41:30.789Z,96284.88
2023-02-16T13:44:01.451Z,96285.00
2023-02-16T13:46:33.490Z,96281.88
2023-02-16T13:49:03.423Z,96281.88
2023-02-16T13:51:43.523Z,96273.69
2023-02-16T13:54:24.751Z,96274.13
2023-02-16T13:56:52.625Z,96276.53
2023-02-16T13:59:57.008Z,96283.91
2023-02-16T14:02:56.367Z,96284.69
2023-02-16T14:05:28.814Z,96272.88
2023-02-16T14:08:18.030Z,96261.44
2023-02-16T14:11:06.982Z,96257.03
2023-02-16T14:13:45.252Z,96262.78
2023-02-16T14:16:29.079Z,96257.22
2023-02-16T14:18:59.318Z,96257.09
2023-02-16T14:21:38.723Z,96249.00
2023-02-16T14:24:11.735Z,96252.84
2023-02-16T14:26:55.871Z,96244.91
2023-02-16T14:29:28.107Z,96233.97
2023-02-16T14:32:02.161Z,96238.06
2023-02-16T14:34:32.281Z,96234.59
2023-02-16T14:37:29.222Z,96232.00
2023-02-16T14:40:08.142Z,96227.38
2023-02-16T14:42:37.088Z,96222.38
2023-02-16T14:45:19.798Z,96236.53
2023-02-16T14:48:00.092Z,96226.88
2023-02-16T14:50:42.610Z,96242.84
2023-02-16T14:53:37.453Z,96262.28
2023-02-16T14:56:25.791Z,96266.16
2023-02-16T14:58:57.806Z,96262.91
2023-02-16T15:01:26.179Z,96264.25
2023-02-16T15:03:56.639Z,96256.16
2023-02-16T15:06:32.054Z,96256.69
2023-02-16T15:09:03.868Z,96253.75
2023-02-16T15:11:34.837Z,96260.63
2023-02-16T15:14:05.756Z,96258.91
2023-02-16T15:16:34.060Z,96255.25
2023-02-16T15:19:11.495Z,96249.31
2023-02-16T15:21:39.379Z,96264.41
2023-02-16T15:24:23.260Z,96259.53
2023-02-16T15:26:57.945Z,96259.97
2023-02-16T15:29:28.252Z,96253.81
2023-02-16T15:31:58.202Z,96261.53
2023-02-16T15:34:34.988Z,96259.19
2023-02-16T15:37:20.216Z,96266.38
2023-02-16T15:40:08.671Z,96260.97
2023-02-16T15:42:43.339Z,96269.19
2023-02-16T15:45:34.162Z,96270.59
2023-02-16T15:48:15.984Z,96266.22
2023-02-16T15:50:44.467Z,96263.84
2023-02-16T15:53:16.585Z,96274.00
2023-02-16T15:55:47.817Z,96272.94
2023-02-16T15:58:16.975Z,96273.28
2023-02-16T16:00:47.710Z,96273.88
2023-02-16T16:03:17.544Z,96279.34
2023-02-16T16:05:58.442Z,96272.03
2023-02-16T16:08:28.803Z,96278.59
2023-02-16T16:10:58.733Z,96272.34
2023-02-16T16:13:29.318Z,96275.91
2023-02-16T16:16:02.046Z,96280.78
2023-02-16T16:18:43.247Z,96285.94
2023-02-16T16:21:18.910Z,96272.66
2023-02-16T16:24:00.407Z,96277.53
2023-02-16T16:26:31.824Z,96282.69
2023-02-16T16:28:59.879Z,96282.66
2023-02-16T16:31:41.577Z,96278.22
2023-02-16T16:34:12.616Z,96284.91
2023-02-16T16:36:46.904Z,96292.34
2023-02-16T16:39:25.417Z,96297.25
2023-02-16T16:42:24.929Z,96294.88
2023-02-16T16:44:59.444Z,96300.09
2023-02-16T16:47:30.874Z,96304.69
2023-02-16T16:50:00.414Z,96304.09
2023-02-16T16:52:38.345Z,96313.34
2023-02-16T16:55:26.181Z,96309.69
2023-02-16T16:57:57.003Z,96310.22
2023-02-16T17:00:27.411Z,96314.09
2023-02-16T17:02:55.207Z,96318.63
2023-02-16T17:05:23.104Z,96314.53
2023-02-16T17:07:51.837Z,96314.97
2023-02-16T17:10:21.663Z,96313.94
2023-02-16T17:12:52.962Z,96316.38
2023-02-16T17:15:43.944Z,96311.53
2023-02-16T17:18:15.744Z,96316.44
2023-02-16T17:20:44.107Z,96322.34
2023-02-16T17:23:12.913Z,96323.53
2023-02-16T17:25:41.354Z,96322.50
2023-02-16T17:28:10.385Z,96330.03
2023-02-16T17:30:38.370Z,96324.06
2023-02-16T17:33:08.214Z,96334.41
2023-02-16T17:35:37.394Z,96330.94
2023-02-16T17:38:09.141Z,96332.31
2023-02-16T17:40:36.876Z,96327.91
2023-02-16T17:43:11.933Z,96326.59
2023-02-16T17:45:39.775Z,96332.59
2023-02-16T17:48:08.933Z,96336.19
2023-02-16T17:50:36.816Z,96339.81
2023-02-16T17:53:04.566Z,96342.97
2023-02-16T17:55:32.325Z,96337.03
2023-02-16T17:58:00.098Z,96332.69
2023-02-16T18:00:27.863Z,96339.13
2023-02-16T18:02:55.637Z,96336.19
2023-02-16T18:05:24.755Z,96339.22
2023-02-16T18:07:52.688Z,96337.13
2023-02-16T18:10:33.246Z,96335.97
2023-02-16T18:13:01.045Z,96345.56
2023-02-16T18:15:28.896Z,96341.13
2023-02-16T18:17:56.709Z,96337.50
2023-02-16T18:20:26.574Z,96333.28
2023-02-16T18:22:55.012Z,96332.09
2023-02-16T18:25:22.820Z,96340.66
2023-02-16T18:27:50.970Z,96333.75
2023-02-16T18:30:18.871Z,96327.31
2023-02-16T18:32:46.802Z,96333.38
2023-02-16T18:35:15.147Z,96335.72
2023-02-16T18:37:44.971Z,96322.38
2023-02-16T18:40:16.672Z,96337.94
2023-02-16T18:42:45.165Z,96342.28
2023-02-16T18:45:13.195Z,96342.81
2023-02-16T18:47:40.906Z,96343.91
2023-02-16T18:50:09.792Z,96340.41
2023-02-16T18:52:37.536Z,96340.41
2023-02-16T18:55:07.305Z,96347.88
2023-02-16T18:57:35.010Z,96338.84
2023-02-16T19:00:03.279Z,96343.19
2023-02-16T19:02:30.992Z,96350.56
2023-02-16T19:04:58.823Z,96346.84
2023-02-16T19:07:26.541Z,96354.41
2023-02-16T19:09:56.752Z,96343.09
2023-02-16T19:12:26.227Z,96349.53
2023-02-16T19:14:53.997Z,96356.19
2023-02-16T19:17:24.428Z,96356.19
2023-02-16T19:19:52.183Z,96352.44
2023-02-16T19:22:19.871Z,96351.84
2023-02-16T19:24:50.077Z,96362.03
2023-02-16T19:27:18.240Z,96350.56
2023-02-16T19:29:47.414Z,96360.28
2023-02-16T19:32:15.185Z,96361.56
2023-02-16T19:34:42.902Z,96356.41
2023-02-16T19:37:10.673Z,96362.03
2023-02-16T19:39:38.435Z,96358.50
2023-02-16T19:42:06.649Z,96351.25
2023-02-16T19:44:35.420Z,96355.38
2023-02-16T19:47:04.508Z,96349.38
2023-02-16T19:49:32.333Z,96348.69
2023-02-16T19:52:02.341Z,96351.97
2023-02-16T19:54:30.904Z,96357.09
2023-02-16T19:56:58.627Z,96350.66
2023-02-16T19:59:26.334Z,96348.22
2023-02-16T20:01:54.182Z,96350.81
2023-02-16T20:04:23.504Z,96355.97
2023-02-16T20:06:53.969Z,96356.31
2023-02-16T20:09:22.513Z,96351.03
2023-02-16T20:11:50.628Z,96351.88
2023-02-16T20:14:18.791Z,96357.25
2023-02-16T20:16:46.581Z,96347.31
2023-02-16T20:19:15.112Z,96335.97
2023-02-16T20:21:46.196Z,96345.66
2023-02-16T20:24:15.222Z,96355.75
2023-02-16T20:26:45.403Z,96348.72
2023-02-16T20:29:16.169Z,96344.50
2023-02-16T20:31:48.349Z,96345.47
2023-02-16T20:34:16.368Z,96346.59
2023-02-16T20:36:47.154Z,96351.88
2023-02-16T20:39:14.961Z,96349.78
2023-02-16T20:41:43.082Z,96341.59
2023-02-16T20:44:12.552Z,96346.63
2023-02-16T20:46:40.982Z,96333.16
2023-02-16T20:49:09.629Z,96332.81
2023-02-16T20:51:38.293Z,96330.56
2023-02-16T20:54:07.505Z,96324.44
2023-02-16T20:56:35.567Z,96329.81
2023-02-16T20:59:03.579Z,96326.84
2023-02-16T21:01:33.746Z,96324.00
2023-02-16T21:04:02.047Z,96326.75
2023-02-16T21:06:30.301Z,96321.47
2023-02-16T21:08:59.283Z,96323.19
2023-02-16T21:11:28.623Z,96319.03
2023-02-16T21:13:57.655Z,96317.47
2023-02-16T21:16:26.122Z,96320.69
2023-02-16T21:18:53.963Z,96303.53
2023-02-16T21:21:21.918Z,96313.25
2023-02-16T21:23:51.938Z,96315.56
2023-02-16T21:26:21.364Z,96311.97
2023-02-16T21:28:54.286Z,96310.78
2023-02-16T21:31:25.255Z,96313.03
2023-02-16T21:33:53.543Z,96317.75
2023-02-16T21:36:24.658Z,96314.47
2023-02-16T21:38:54.904Z,96307.22
2023-02-16T21:41:26.172Z,96305.63
2023-02-16T21:44:00.587Z,96303.31
2023-02-16T21:46:31.299Z,96302.88
2023-02-16T21:48:58.578Z,96299.91
2023-02-16T21:51:28.995Z,96298.63
2023-02-16T21:53:58.082Z,96293.81
2023-02-16T21:56:33.357Z,96294.63
2023-02-16T21:59:02.517Z,96291.16
2023-02-16T22:01:32.341Z,96290.97
2023-02-16T22:04:01.463Z,96294.50
2023-02-16T22:06:32.280Z,96288.78
2023-02-16T22:09:00.799Z,96293.44
2023-02-16T22:11:28.906Z,96300.19
2023-02-16T22:13:57.740Z,96298.78
2023-02-16T22:16:29.582Z,96294.47
2023-02-16T22:18:58.405Z,96299.91
2023-02-16T22:21:26.321Z,96298.00
2023-02-16T22:23:54.895Z,96294.75
2023-02-16T22:26:24.730Z,96297.47
2023-02-16T22:28:52.476Z,96295.88
2023-02-16T22:31:22.813Z,96282.84
2023-02-16T22:33:57.399Z,96292.91
2023-02-16T22:36:25.144Z,96291.34
2023-02-16T22:38:53.496Z,96296.25
2023-02-16T22:41:21.996Z,96293.00
2023-02-16T22:43:53.205Z,96290.03
2023-02-16T22:46:21.288Z,96289.50
2023-02-16T22:48:49.447Z,96284.91
2023-02-16T22:51:19.133Z,96293.28
2023-02-16T22:53:47.368Z,96285.16
2023-02-16T23:01:04.773Z,96291.34
2023-02-16T23:03:32.552Z,96287.28
2023-02-16T23:06:00.247Z,96291.91
2023-02-16T23:08:27.949Z,96290.03
2023-02-16T23:11:01.277Z,96289.78
2023-02-16T23:13:30.106Z,96276.53
2023-02-16T23:16:03.324Z,96283.88
2023-02-16T23:18:35.787Z,96288.75
2023-02-16T23:21:07.810Z,96284.13
2023-02-16T23:23:35.715Z,96291.44
2023-02-16T23:26:04.272Z,96290.94
2023-02-16T23:28:32.219Z,96289.81
2023-02-16T23:31:00.023Z,96283.56
2023-02-16T23:33:28.466Z,96286.03
2023-02-16T23:35:57.920Z,96278.22
2023-02-16T23:38:26.260Z,96286.03
2023-02-16T23:40:57.792Z,96279.50
2023-02-16T23:43:25.655Z,96290.28
2023-02-16T23:45:53.866Z,96284.59
2023-02-16T23:48:22.440Z,96274.47
2023-02-16T23:50:50.625Z,96284.19
2023-02-16T23:53:20.572Z,96279.81
2023-02-16T23:55:58.030Z,96282.72
2023-02-16T23:58:27.380Z,96278.06
